sensor_id;sensor_type;location;lat;lon;timestamp;P1;durP1;ratioP1;P2;durP2;ratioP2
56391;SDS011;42289;53.582;9.714;2022-12-07T00:01:04;31.23;;;15.40;;
56391;SDS011;42289;53.582;9.714;2022-12-07T00:03:31;31.80;;;15.50;;
56391;SDS011;42289;53.582;9.714;2022-12-07T00:05:58;29.98;;;15.20;;
56391;SDS011;42289;53.582;9.714;2022-12-07T00:08:26;31.02;;;15.15;;
56391;SDS011;42289;53.582;9.714;2022-12-07T00:10:53;29.45;;;14.57;;
56391;SDS011;42289;53.582;9.714;2022-12-07T00:13:19;27.92;;;14.00;;
56391;SDS011;42289;53.582;9.714;2022-12-07T00:15:46;29.15;;;14.50;;
56391;SDS011;42289;53.582;9.714;2022-12-07T00:18:12;28.95;;;13.88;;
56391;SDS011;42289;53.582;9.714;2022-12-07T00:20:39;27.40;;;13.25;;
56391;SDS011;42289;53.582;9.714;2022-12-07T00:23:05;26.10;;;13.35;;
56391;SDS011;42289;53.582;9.714;2022-12-07T00:25:33;24.80;;;13.35;;
56391;SDS011;42289;53.582;9.714;2022-12-07T00:27:59;29.13;;;13.95;;
56391;SDS011;42289;53.582;9.714;2022-12-07T00:30:26;27.98;;;13.73;;
56391;SDS011;42289;53.582;9.714;2022-12-07T00:32:52;30.42;;;14.20;;
56391;SDS011;42289;53.582;9.714;2022-12-07T00:35:19;29.98;;;13.85;;
56391;SDS011;42289;53.582;9.714;2022-12-07T00:37:45;29.70;;;14.38;;
56391;SDS011;42289;53.582;9.714;2022-12-07T00:40:12;29.75;;;13.77;;
56391;SDS011;42289;53.582;9.714;2022-12-07T00:42:40;28.10;;;13.63;;
56391;SDS011;42289;53.582;9.714;2022-12-07T00:45:06;29.65;;;13.40;;
56391;SDS011;42289;53.582;9.714;2022-12-07T00:47:34;22.15;;;11.98;;
56391;SDS011;42289;53.582;9.714;2022-12-07T00:50:00;24.17;;;11.82;;
56391;SDS011;42289;53.582;9.714;2022-12-07T00:52:26;23.77;;;11.75;;
56391;SDS011;42289;53.582;9.714;2022-12-07T00:54:53;25.23;;;11.88;;
56391;SDS011;42289;53.582;9.714;2022-12-07T00:57:19;22.55;;;11.60;;
56391;SDS011;42289;53.582;9.714;2022-12-07T00:59:47;22.10;;;11.07;;
56391;SDS011;42289;53.582;9.714;2022-12-07T01:02:14;22.58;;;10.77;;
56391;SDS011;42289;53.582;9.714;2022-12-07T01:04:40;24.52;;;10.82;;
56391;SDS011;42289;53.582;9.714;2022-12-07T01:07:07;22.17;;;9.85;;
56391;SDS011;42289;53.582;9.714;2022-12-07T01:09:33;23.08;;;11.23;;
56391;SDS011;42289;53.582;9.714;2022-12-07T01:12:00;23.23;;;10.73;;
56391;SDS011;42289;53.582;9.714;2022-12-07T01:14:27;23.42;;;11.20;;
56391;SDS011;42289;53.582;9.714;2022-12-07T01:16:55;23.10;;;11.15;;
56391;SDS011;42289;53.582;9.714;2022-12-07T01:19:21;22.33;;;12.25;;
56391;SDS011;42289;53.582;9.714;2022-12-07T01:21:48;22.08;;;10.80;;
56391;SDS011;42289;53.582;9.714;2022-12-07T01:24:14;24.08;;;11.13;;
56391;SDS011;42289;53.582;9.714;2022-12-07T01:26:41;24.17;;;11.90;;
56391;SDS011;42289;53.582;9.714;2022-12-07T01:29:07;23.58;;;12.00;;
56391;SDS011;42289;53.582;9.714;2022-12-07T01:31:33;25.40;;;12.27;;
56391;SDS011;42289;53.582;9.714;2022-12-07T01:34:01;28.23;;;11.73;;
56391;SDS011;42289;53.582;9.714;2022-12-07T01:36:28;24.00;;;11.40;;
56391;SDS011;42289;53.582;9.714;2022-12-07T01:38:57;22.58;;;10.50;;
56391;SDS011;42289;53.582;9.714;2022-12-07T01:41:25;23.30;;;10.63;;
56391;SDS011;42289;53.582;9.714;2022-12-07T01:46:52;24.00;;;10.38;;
56391;SDS011;42289;53.582;9.714;2022-12-07T01:49:27;24.63;;;11.43;;
56391;SDS011;42289;53.582;9.714;2022-12-07T01:51:59;23.88;;;10.45;;
56391;SDS011;42289;53.582;9.714;2022-12-07T01:54:33;23.33;;;10.25;;
56391;SDS011;42289;53.582;9.714;2022-12-07T01:57:00;23.65;;;10.40;;
56391;SDS011;42289;53.582;9.714;2022-12-07T01:59:28;22.90;;;9.25;;
56391;SDS011;42289;53.582;9.714;2022-12-07T02:01:55;26.52;;;10.15;;
56391;SDS011;42289;53.582;9.714;2022-12-07T02:04:22;20.80;;;9.43;;
56391;SDS011;42289;53.582;9.714;2022-12-07T02:06:50;29.00;;;9.80;;
56391;SDS011;42289;53.582;9.714;2022-12-07T02:09:17;23.95;;;9.45;;
56391;SDS011;42289;53.582;9.714;2022-12-07T02:11:44;23.08;;;10.02;;
56391;SDS011;42289;53.582;9.714;2022-12-07T02:14:10;23.23;;;9.07;;
56391;SDS011;42289;53.582;9.714;2022-12-07T02:16:38;26.30;;;9.25;;
56391;SDS011;42289;53.582;9.714;2022-12-07T02:19:21;19.33;;;8.50;;
56391;SDS011;42289;53.582;9.714;2022-12-07T02:22:22;21.77;;;8.73;;
56391;SDS011;42289;53.582;9.714;2022-12-07T02:25:04;21.92;;;7.95;;
56391;SDS011;42289;53.582;9.714;2022-12-07T02:27:39;21.08;;;8.15;;
56391;SDS011;42289;53.582;9.714;2022-12-07T02:30:13;22.65;;;8.50;;
56391;SDS011;42289;53.582;9.714;2022-12-07T02:32:43;18.92;;;8.18;;
56391;SDS011;42289;53.582;9.714;2022-12-07T02:35:17;18.60;;;7.55;;
56391;SDS011;42289;53.582;9.714;2022-12-07T02:37:51;20.40;;;7.30;;
56391;SDS011;42289;53.582;9.714;2022-12-07T02:40:25;18.20;;;6.50;;
56391;SDS011;42289;53.582;9.714;2022-12-07T02:42:58;17.48;;;6.50;;
56391;SDS011;42289;53.582;9.714;2022-12-07T02:45:31;16.10;;;5.55;;
56391;SDS011;42289;53.582;9.714;2022-12-07T02:48:02;14.57;;;5.22;;
56391;SDS011;42289;53.582;9.714;2022-12-07T02:50:31;17.15;;;4.68;;
56391;SDS011;42289;53.582;9.714;2022-12-07T02:52:57;11.65;;;4.50;;
56391;SDS011;42289;53.582;9.714;2022-12-07T02:55:25;9.15;;;4.07;;
56391;SDS011;42289;53.582;9.714;2022-12-07T02:58:01;11.73;;;3.80;;
56391;SDS011;42289;53.582;9.714;2022-12-07T03:00:43;11.65;;;3.10;;
56391;SDS011;42289;53.582;9.714;2022-12-07T03:03:17;6.45;;;2.80;;
56391;SDS011;42289;53.582;9.714;2022-12-07T03:08:41;13.25;;;3.17;;
56391;SDS011;42289;53.582;9.714;2022-12-07T03:11:14;10.77;;;2.42;;
56391;SDS011;42289;53.582;9.714;2022-12-07T03:13:47;10.30;;;2.88;;
56391;SDS011;42289;53.582;9.714;2022-12-07T03:16:21;7.80;;;2.57;;
56391;SDS011;42289;53.582;9.714;2022-12-07T03:18:52;9.60;;;2.35;;
56391;SDS011;42289;53.582;9.714;2022-12-07T03:21:22;11.50;;;2.50;;
56391;SDS011;42289;53.582;9.714;2022-12-07T03:23:51;8.40;;;2.47;;
56391;SDS011;42289;53.582;9.714;2022-12-07T03:26:23;9.52;;;2.30;;
56391;SDS011;42289;53.582;9.714;2022-12-07T03:28:56;6.88;;;2.28;;
56391;SDS011;42289;53.582;9.714;2022-12-07T03:31:30;9.07;;;2.08;;
56391;SDS011;42289;53.582;9.714;2022-12-07T03:34:00;13.82;;;2.50;;
56391;SDS011;42289;53.582;9.714;2022-12-07T03:36:34;9.50;;;2.15;;
56391;SDS011;42289;53.582;9.714;2022-12-07T03:39:07;8.98;;;1.92;;
56391;SDS011;42289;53.582;9.714;2022-12-07T03:41:40;9.95;;;2.30;;
56391;SDS011;42289;53.582;9.714;2022-12-07T03:44:07;9.63;;;2.00;;
56391;SDS011;42289;53.582;9.714;2022-12-07T03:46:37;6.82;;;1.95;;
56391;SDS011;42289;53.582;9.714;2022-12-07T03:49:11;11.43;;;2.13;;
56391;SDS011;42289;53.582;9.714;2022-12-07T03:51:45;10.98;;;2.10;;
56391;SDS011;42289;53.582;9.714;2022-12-07T03:54:17;13.60;;;2.28;;
56391;SDS011;42289;53.582;9.714;2022-12-07T03:56:47;10.10;;;2.00;;
56391;SDS011;42289;53.582;9.714;2022-12-07T03:59:16;8.63;;;2.33;;
56391;SDS011;42289;53.582;9.714;2022-12-07T04:01:47;10.20;;;2.20;;
56391;SDS011;42289;53.582;9.714;2022-12-07T04:04:18;11.80;;;2.20;;
56391;SDS011;42289;53.582;9.714;2022-12-07T04:06:44;12.63;;;2.30;;
56391;SDS011;42289;53.582;9.714;2022-12-07T04:09:11;11.52;;;2.38;;
56391;SDS011;42289;53.582;9.714;2022-12-07T04:11:39;14.65;;;2.50;;
56391;SDS011;42289;53.582;9.714;2022-12-07T04:14:06;12.27;;;2.40;;
56391;SDS011;42289;53.582;9.714;2022-12-07T04:16:45;13.75;;;2.50;;
56391;SDS011;42289;53.582;9.714;2022-12-07T04:19:12;7.43;;;2.28;;
56391;SDS011;42289;53.582;9.714;2022-12-07T04:21:40;6.40;;;2.10;;
56391;SDS011;42289;53.582;9.714;2022-12-07T04:24:08;7.30;;;1.92;;
56391;SDS011;42289;53.582;9.714;2022-12-07T04:26:34;7.85;;;2.42;;
56391;SDS011;42289;53.582;9.714;2022-12-07T04:29:01;10.00;;;2.50;;
56391;SDS011;42289;53.582;9.714;2022-12-07T04:31:27;7.25;;;2.35;;
56391;SDS011;42289;53.582;9.714;2022-12-07T04:33:55;10.70;;;2.45;;
56391;SDS011;42289;53.582;9.714;2022-12-07T04:36:21;10.68;;;2.47;;
56391;SDS011;42289;53.582;9.714;2022-12-07T04:38:48;7.22;;;2.55;;
56391;SDS011;42289;53.582;9.714;2022-12-07T04:41:14;8.50;;;2.45;;
56391;SDS011;42289;53.582;9.714;2022-12-07T04:43:41;9.32;;;3.00;;
56391;SDS011;42289;53.582;9.714;2022-12-07T04:46:07;8.00;;;2.30;;
56391;SDS011;42289;53.582;9.714;2022-12-07T04:48:34;8.55;;;2.92;;
56391;SDS011;42289;53.582;9.714;2022-12-07T04:51:03;6.20;;;2.70;;
56391;SDS011;42289;53.582;9.714;2022-12-07T04:53:30;7.47;;;2.70;;
56391;SDS011;42289;53.582;9.714;2022-12-07T04:55:56;7.20;;;2.80;;
56391;SDS011;42289;53.582;9.714;2022-12-07T04:58:23;7.13;;;2.78;;
56391;SDS011;42289;53.582;9.714;2022-12-07T05:00:49;7.40;;;2.70;;
56391;SDS011;42289;53.582;9.714;2022-12-07T05:03:19;6.32;;;2.97;;
56391;SDS011;42289;53.582;9.714;2022-12-07T05:05:45;10.63;;;3.20;;
56391;SDS011;42289;53.582;9.714;2022-12-07T05:08:13;7.93;;;2.78;;
56391;SDS011;42289;53.582;9.714;2022-12-07T05:10:40;9.07;;;3.03;;
56391;SDS011;42289;53.582;9.714;2022-12-07T05:13:06;6.55;;;2.67;;
56391;SDS011;42289;53.582;9.714;2022-12-07T05:15:32;8.75;;;2.92;;
56391;SDS011;42289;53.582;9.714;2022-12-07T05:17:59;8.57;;;2.67;;
56391;SDS011;42289;53.582;9.714;2022-12-07T05:20:26;5.45;;;2.40;;
56391;SDS011;42289;53.582;9.714;2022-12-07T05:22:52;6.72;;;2.85;;
56391;SDS011;42289;53.582;9.714;2022-12-07T05:25:20;7.32;;;2.92;;
56391;SDS011;42289;53.582;9.714;2022-12-07T05:27:46;6.15;;;2.70;;
56391;SDS011;42289;53.582;9.714;2022-12-07T05:30:13;8.45;;;2.80;;
56391;SDS011;42289;53.582;9.714;2022-12-07T05:32:39;7.35;;;2.97;;
56391;SDS011;42289;53.582;9.714;2022-12-07T05:35:06;6.53;;;3.15;;
56391;SDS011;42289;53.582;9.714;2022-12-07T05:37:33;6.57;;;2.75;;
56391;SDS011;42289;53.582;9.714;2022-12-07T05:39:59;10.55;;;2.80;;
56391;SDS011;42289;53.582;9.714;2022-12-07T05:42:27;8.27;;;2.75;;
56391;SDS011;42289;53.582;9.714;2022-12-07T05:44:53;7.50;;;2.85;;
56391;SDS011;42289;53.582;9.714;2022-12-07T05:47:20;6.32;;;3.20;;
56391;SDS011;42289;53.582;9.714;2022-12-07T05:49:46;7.70;;;2.60;;
56391;SDS011;42289;53.582;9.714;2022-12-07T05:52:13;7.40;;;2.63;;
56391;SDS011;42289;53.582;9.714;2022-12-07T05:54:39;7.30;;;2.80;;
56391;SDS011;42289;53.582;9.714;2022-12-07T05:57:06;8.98;;;2.70;;
56391;SDS011;42289;53.582;9.714;2022-12-07T05:59:34;7.15;;;2.78;;
56391;SDS011;42289;53.582;9.714;2022-12-07T06:02:00;6.88;;;2.72;;
56391;SDS011;42289;53.582;9.714;2022-12-07T06:04:28;5.45;;;2.67;;
56391;SDS011;42289;53.582;9.714;2022-12-07T06:06:55;7.97;;;2.30;;
56391;SDS011;42289;53.582;9.714;2022-12-07T06:09:23;9.90;;;2.47;;
56391;SDS011;42289;53.582;9.714;2022-12-07T06:11:51;7.75;;;2.50;;
56391;SDS011;42289;53.582;9.714;2022-12-07T06:14:37;12.05;;;2.33;;
56391;SDS011;42289;53.582;9.714;2022-12-07T06:17:03;6.72;;;2.13;;
56391;SDS011;42289;53.582;9.714;2022-12-07T06:19:30;6.63;;;2.17;;
56391;SDS011;42289;53.582;9.714;2022-12-07T06:21:57;9.60;;;2.33;;
56391;SDS011;42289;53.582;9.714;2022-12-07T06:24:24;6.55;;;2.03;;
56391;SDS011;42289;53.582;9.714;2022-12-07T06:26:50;5.78;;;1.98;;
56391;SDS011;42289;53.582;9.714;2022-12-07T06:29:17;5.40;;;2.15;;
56391;SDS011;42289;53.582;9.714;2022-12-07T06:31:45;8.38;;;1.85;;
56391;SDS011;42289;53.582;9.714;2022-12-07T06:34:12;7.70;;;1.95;;
56391;SDS011;42289;53.582;9.714;2022-12-07T06:36:41;6.10;;;1.67;;
56391;SDS011;42289;53.582;9.714;2022-12-07T06:39:08;5.90;;;1.90;;
56391;SDS011;42289;53.582;9.714;2022-12-07T06:41:35;7.70;;;1.73;;
56391;SDS011;42289;53.582;9.714;2022-12-07T06:44:02;7.07;;;1.77;;
56391;SDS011;42289;53.582;9.714;2022-12-07T06:46:28;9.85;;;4.55;;
56391;SDS011;42289;53.582;9.714;2022-12-07T06:48:56;5.43;;;1.85;;
56391;SDS011;42289;53.582;9.714;2022-12-07T06:51:23;6.65;;;1.60;;
56391;SDS011;42289;53.582;9.714;2022-12-07T06:53:49;7.07;;;1.77;;
56391;SDS011;42289;53.582;9.714;2022-12-07T06:56:16;5.32;;;1.63;;
56391;SDS011;42289;53.582;9.714;2022-12-07T06:58:42;6.18;;;1.50;;
56391;SDS011;42289;53.582;9.714;2022-12-07T07:01:09;4.68;;;1.20;;
56391;SDS011;42289;53.582;9.714;2022-12-07T07:03:36;4.53;;;1.60;;
56391;SDS011;42289;53.582;9.714;2022-12-07T07:06:04;6.97;;;1.55;;
56391;SDS011;42289;53.582;9.714;2022-12-07T07:08:32;5.85;;;1.40;;
56391;SDS011;42289;53.582;9.714;2022-12-07T07:10:58;3.83;;;1.10;;
56391;SDS011;42289;53.582;9.714;2022-12-07T07:13:25;4.72;;;1.10;;
56391;SDS011;42289;53.582;9.714;2022-12-07T07:15:52;5.13;;;1.30;;
56391;SDS011;42289;53.582;9.714;2022-12-07T07:18:18;5.43;;;1.25;;
56391;SDS011;42289;53.582;9.714;2022-12-07T07:20:45;4.22;;;1.30;;
56391;SDS011;42289;53.582;9.714;2022-12-07T07:23:13;4.55;;;1.30;;
56391;SDS011;42289;53.582;9.714;2022-12-07T07:25:39;5.78;;;1.70;;
56391;SDS011;42289;53.582;9.714;2022-12-07T07:28:05;4.68;;;1.40;;
56391;SDS011;42289;53.582;9.714;2022-12-07T07:30:32;7.47;;;1.45;;
56391;SDS011;42289;53.582;9.714;2022-12-07T07:32:59;9.35;;;1.52;;
56391;SDS011;42289;53.582;9.714;2022-12-07T07:35:26;5.50;;;1.30;;
56391;SDS011;42289;53.582;9.714;2022-12-07T07:37:52;8.52;;;1.90;;
56391;SDS011;42289;53.582;9.714;2022-12-07T07:40:21;6.80;;;1.83;;
56391;SDS011;42289;53.582;9.714;2022-12-07T07:42:48;9.77;;;1.80;;
56391;SDS011;42289;53.582;9.714;2022-12-07T07:45:15;5.22;;;1.52;;
56391;SDS011;42289;53.582;9.714;2022-12-07T07:47:42;3.75;;;1.30;;
56391;SDS011;42289;53.582;9.714;2022-12-07T07:50:08;4.53;;;1.48;;
56391;SDS011;42289;53.582;9.714;2022-12-07T07:52:35;7.30;;;1.70;;
56391;SDS011;42289;53.582;9.714;2022-12-07T07:55:02;5.93;;;1.52;;
56391;SDS011;42289;53.582;9.714;2022-12-07T07:57:30;3.63;;;1.27;;
56391;SDS011;42289;53.582;9.714;2022-12-07T07:59:57;5.80;;;1.48;;
56391;SDS011;42289;53.582;9.714;2022-12-07T08:02:24;6.82;;;1.50;;
56391;SDS011;42289;53.582;9.714;2022-12-07T08:04:50;4.38;;;1.30;;
56391;SDS011;42289;53.582;9.714;2022-12-07T08:07:16;4.70;;;1.20;;
56391;SDS011;42289;53.582;9.714;2022-12-07T08:09:43;4.55;;;1.38;;
56391;SDS011;42289;53.582;9.714;2022-12-07T08:12:09;5.00;;;1.35;;
56391;SDS011;42289;53.582;9.714;2022-12-07T08:14:37;4.20;;;1.40;;
56391;SDS011;42289;53.582;9.714;2022-12-07T08:17:03;6.97;;;2.08;;
56391;SDS011;42289;53.582;9.714;2022-12-07T08:19:30;9.52;;;1.92;;
56391;SDS011;42289;53.582;9.714;2022-12-07T08:21:56;4.47;;;1.50;;
56391;SDS011;42289;53.582;9.714;2022-12-07T08:24:23;7.40;;;1.35;;
56391;SDS011;42289;53.582;9.714;2022-12-07T08:26:50;6.97;;;1.50;;
56391;SDS011;42289;53.582;9.714;2022-12-07T08:29:17;8.27;;;1.70;;
56391;SDS011;42289;53.582;9.714;2022-12-07T08:31:45;7.03;;;1.52;;
56391;SDS011;42289;53.582;9.714;2022-12-07T08:34:12;10.57;;;1.70;;
56391;SDS011;42289;53.582;9.714;2022-12-07T08:36:39;6.18;;;1.55;;
56391;SDS011;42289;53.582;9.714;2022-12-07T08:39:05;12.57;;;2.35;;
56391;SDS011;42289;53.582;9.714;2022-12-07T08:41:32;11.32;;;4.22;;
56391;SDS011;42289;53.582;9.714;2022-12-07T08:43:59;7.82;;;2.15;;
56391;SDS011;42289;53.582;9.714;2022-12-07T08:46:26;8.50;;;2.22;;
56391;SDS011;42289;53.582;9.714;2022-12-07T08:49:01;10.10;;;2.63;;
56391;SDS011;42289;53.582;9.714;2022-12-07T08:51:30;10.45;;;2.25;;
56391;SDS011;42289;53.582;9.714;2022-12-07T08:53:57;8.00;;;1.77;;
56391;SDS011;42289;53.582;9.714;2022-12-07T08:56:26;9.63;;;2.30;;
56391;SDS011;42289;53.582;9.714;2022-12-07T08:58:53;8.40;;;2.28;;
56391;SDS011;42289;53.582;9.714;2022-12-07T09:01:20;9.93;;;2.00;;
56391;SDS011;42289;53.582;9.714;2022-12-07T09:03:46;4.30;;;1.80;;
56391;SDS011;42289;53.582;9.714;2022-12-07T09:06:14;7.13;;;1.80;;
56391;SDS011;42289;53.582;9.714;2022-12-07T09:08:41;8.02;;;1.80;;
56391;SDS011;42289;53.582;9.714;2022-12-07T09:11:09;7.35;;;2.03;;
56391;SDS011;42289;53.582;9.714;2022-12-07T09:13:36;8.32;;;2.17;;
56391;SDS011;42289;53.582;9.714;2022-12-07T09:16:02;6.70;;;1.60;;
56391;SDS011;42289;53.582;9.714;2022-12-07T09:18:29;9.13;;;1.75;;
56391;SDS011;42289;53.582;9.714;2022-12-07T09:20:56;6.95;;;1.58;;
56391;SDS011;42289;53.582;9.714;2022-12-07T09:23:24;16.52;;;2.03;;
56391;SDS011;42289;53.582;9.714;2022-12-07T09:25:50;6.35;;;1.45;;
56391;SDS011;42289;53.582;9.714;2022-12-07T09:28:17;8.40;;;1.95;;
56391;SDS011;42289;53.582;9.714;2022-12-07T09:30:45;5.95;;;1.30;;
56391;SDS011;42289;53.582;9.714;2022-12-07T09:33:11;8.52;;;1.52;;
56391;SDS011;42289;53.582;9.714;2022-12-07T09:35:38;5.28;;;1.30;;
56391;SDS011;42289;53.582;9.714;2022-12-07T09:38:10;7.38;;;1.77;;
56391;SDS011;42289;53.582;9.714;2022-12-07T09:40:38;10.20;;;1.67;;
56391;SDS011;42289;53.582;9.714;2022-12-07T09:43:05;6.00;;;1.33;;
56391;SDS011;42289;53.582;9.714;2022-12-07T09:45:37;4.32;;;1.27;;
56391;SDS011;42289;53.582;9.714;2022-12-07T09:48:04;7.75;;;1.55;;
56391;SDS011;42289;53.582;9.714;2022-12-07T09:50:34;6.63;;;1.33;;
56391;SDS011;42289;53.582;9.714;2022-12-07T09:53:03;6.93;;;1.65;;
56391;SDS011;42289;53.582;9.714;2022-12-07T09:55:34;3.17;;;1.10;;
56391;SDS011;42289;53.582;9.714;2022-12-07T09:58:03;8.43;;;1.13;;
56391;SDS011;42289;53.582;9.714;2022-12-07T10:00:30;6.50;;;1.42;;
56391;SDS011;42289;53.582;9.714;2022-12-07T10:02:57;8.07;;;1.95;;
56391;SDS011;42289;53.582;9.714;2022-12-07T10:05:26;5.88;;;1.33;;
56391;SDS011;42289;53.582;9.714;2022-12-07T10:07:55;4.68;;;1.10;;
56391;SDS011;42289;53.582;9.714;2022-12-07T10:10:23;5.13;;;1.00;;
56391;SDS011;42289;53.582;9.714;2022-12-07T10:12:56;7.25;;;1.25;;
56391;SDS011;42289;53.582;9.714;2022-12-07T10:15:44;5.35;;;1.10;;
56391;SDS011;42289;53.582;9.714;2022-12-07T10:18:20;8.00;;;1.65;;
56391;SDS011;42289;53.582;9.714;2022-12-07T10:21:00;6.45;;;0.95;;
56391;SDS011;42289;53.582;9.714;2022-12-07T10:23:38;9.52;;;1.25;;
56391;SDS011;42289;53.582;9.714;2022-12-07T10:28:53;4.35;;;1.13;;
56391;SDS011;42289;53.582;9.714;2022-12-07T10:31:22;6.38;;;1.60;;
56391;SDS011;42289;53.582;9.714;2022-12-07T10:33:49;6.22;;;1.08;;
56391;SDS011;42289;53.582;9.714;2022-12-07T10:36:22;6.32;;;1.05;;
56391;SDS011;42289;53.582;9.714;2022-12-07T10:38:51;6.80;;;0.80;;
56391;SDS011;42289;53.582;9.714;2022-12-07T10:41:19;5.38;;;1.13;;
56391;SDS011;42289;53.582;9.714;2022-12-07T10:43:46;4.32;;;1.08;;
56391;SDS011;42289;53.582;9.714;2022-12-07T10:46:20;5.88;;;1.50;;
56391;SDS011;42289;53.582;9.714;2022-12-07T10:49:10;7.90;;;1.10;;
56391;SDS011;42289;53.582;9.714;2022-12-07T10:51:54;8.93;;;1.30;;
56391;SDS011;42289;53.582;9.714;2022-12-07T10:54:29;7.45;;;1.23;;
56391;SDS011;42289;53.582;9.714;2022-12-07T10:57:10;10.13;;;2.10;;
56391;SDS011;42289;53.582;9.714;2022-12-07T10:59:52;6.32;;;1.35;;
56391;SDS011;42289;53.582;9.714;2022-12-07T11:02:35;7.07;;;1.48;;
56391;SDS011;42289;53.582;9.714;2022-12-07T11:05:16;8.10;;;1.33;;
56391;SDS011;42289;53.582;9.714;2022-12-07T11:07:52;8.45;;;1.33;;
56391;SDS011;42289;53.582;9.714;2022-12-07T11:10:28;9.05;;;1.60;;
56391;SDS011;42289;53.582;9.714;2022-12-07T11:13:04;6.97;;;1.10;;
56391;SDS011;42289;53.582;9.714;2022-12-07T11:15:45;7.25;;;1.27;;
56391;SDS011;42289;53.582;9.714;2022-12-07T11:18:22;7.45;;;1.17;;
56391;SDS011;42289;53.582;9.714;2022-12-07T11:20:56;5.22;;;1.20;;
56391;SDS011;42289;53.582;9.714;2022-12-07T11:23:35;5.93;;;1.55;;
56391;SDS011;42289;53.582;9.714;2022-12-07T11:26:38;6.72;;;1.33;;
56391;SDS011;42289;53.582;9.714;2022-12-07T11:29:23;7.00;;;1.27;;
56391;SDS011;42289;53.582;9.714;2022-12-07T11:32:02;10.50;;;1.50;;
56391;SDS011;42289;53.582;9.714;2022-12-07T11:34:39;6.72;;;1.20;;
56391;SDS011;42289;53.582;9.714;2022-12-07T11:37:13;7.50;;;1.30;;
56391;SDS011;42289;53.582;9.714;2022-12-07T11:39:44;6.97;;;1.33;;
56391;SDS011;42289;53.582;9.714;2022-12-07T11:42:19;6.03;;;1.30;;
56391;SDS011;42289;53.582;9.714;2022-12-07T11:44:50;8.70;;;1.30;;
56391;SDS011;42289;53.582;9.714;2022-12-07T11:47:20;6.38;;;1.33;;
56391;SDS011;42289;53.582;9.714;2022-12-07T11:49:53;3.97;;;1.60;;
56391;SDS011;42289;53.582;9.714;2022-12-07T11:52:25;8.07;;;1.55;;
56391;SDS011;42289;53.582;9.714;2022-12-07T11:54:56;7.97;;;1.55;;
56391;SDS011;42289;53.582;9.714;2022-12-07T11:57:28;8.45;;;1.45;;
56391;SDS011;42289;53.582;9.714;2022-12-07T12:00:04;11.32;;;2.38;;
56391;SDS011;42289;53.582;9.714;2022-12-07T12:02:41;6.43;;;1.73;;
56391;SDS011;42289;53.582;9.714;2022-12-07T12:05:16;10.43;;;2.60;;
56391;SDS011;42289;53.582;9.714;2022-12-07T12:07:46;7.40;;;1.60;;
56391;SDS011;42289;53.582;9.714;2022-12-07T12:10:20;7.97;;;1.48;;
56391;SDS011;42289;53.582;9.714;2022-12-07T12:16:19;9.98;;;1.45;;
56391;SDS011;42289;53.582;9.714;2022-12-07T12:19:15;6.70;;;1.38;;
56391;SDS011;42289;53.582;9.714;2022-12-07T12:21:53;8.60;;;1.33;;
56391;SDS011;42289;53.582;9.714;2022-12-07T12:24:23;7.22;;;1.42;;
56391;SDS011;42289;53.582;9.714;2022-12-07T12:26:53;6.43;;;1.27;;
56391;SDS011;42289;53.582;9.714;2022-12-07T12:32:04;6.03;;;1.20;;
56391;SDS011;42289;53.582;9.714;2022-12-07T12:34:38;6.00;;;1.30;;
56391;SDS011;42289;53.582;9.714;2022-12-07T12:37:44;8.90;;;1.15;;
56391;SDS011;42289;53.582;9.714;2022-12-07T12:40:24;4.40;;;1.10;;
56391;SDS011;42289;53.582;9.714;2022-12-07T12:43:26;7.68;;;1.40;;
56391;SDS011;42289;53.582;9.714;2022-12-07T12:46:37;8.68;;;1.25;;
56391;SDS011;42289;53.582;9.714;2022-12-07T12:51:58;7.32;;;1.50;;
56391;SDS011;42289;53.582;9.714;2022-12-07T12:54:57;5.82;;;1.20;;
56391;SDS011;42289;53.582;9.714;2022-12-07T12:57:27;8.77;;;1.70;;
56391;SDS011;42289;53.582;9.714;2022-12-07T12:59:56;5.78;;;1.50;;
56391;SDS011;42289;53.582;9.714;2022-12-07T13:02:26;8.35;;;1.67;;
56391;SDS011;42289;53.582;9.714;2022-12-07T13:04:55;6.25;;;1.48;;
56391;SDS011;42289;53.582;9.714;2022-12-07T13:10:25;11.88;;;1.52;;
56391;SDS011;42289;53.582;9.714;2022-12-07T13:13:00;5.80;;;1.40;;
56391;SDS011;42289;53.582;9.714;2022-12-07T13:15:33;6.25;;;1.50;;
56391;SDS011;42289;53.582;9.714;2022-12-07T13:18:04;6.43;;;1.33;;
56391;SDS011;42289;53.582;9.714;2022-12-07T13:20:49;7.85;;;1.13;;
56391;SDS011;42289;53.582;9.714;2022-12-07T13:23:25;11.82;;;1.45;;
56391;SDS011;42289;53.582;9.714;2022-12-07T13:25:55;8.55;;;1.30;;
56391;SDS011;42289;53.582;9.714;2022-12-07T13:28:35;8.65;;;1.40;;
56391;SDS011;42289;53.582;9.714;2022-12-07T13:31:09;7.55;;;1.50;;
56391;SDS011;42289;53.582;9.714;2022-12-07T13:33:46;10.18;;;1.30;;
56391;SDS011;42289;53.582;9.714;2022-12-07T13:36:21;9.20;;;1.50;;
56391;SDS011;42289;53.582;9.714;2022-12-07T13:38:50;17.08;;;1.92;;
56391;SDS011;42289;53.582;9.714;2022-12-07T13:41:19;13.50;;;1.90;;
56391;SDS011;42289;53.582;9.714;2022-12-07T13:43:51;10.57;;;1.98;;
56391;SDS011;42289;53.582;9.714;2022-12-07T13:46:42;10.55;;;1.75;;
56391;SDS011;42289;53.582;9.714;2022-12-07T13:49:17;8.02;;;1.33;;
56391;SDS011;42289;53.582;9.714;2022-12-07T13:51:46;9.18;;;1.52;;
56391;SDS011;42289;53.582;9.714;2022-12-07T13:54:14;8.18;;;1.10;;
56391;SDS011;42289;53.582;9.714;2022-12-07T13:56:40;8.95;;;1.23;;
56391;SDS011;42289;53.582;9.714;2022-12-07T13:59:10;5.88;;;1.52;;
56391;SDS011;42289;53.582;9.714;2022-12-07T14:01:40;8.18;;;1.15;;
56391;SDS011;42289;53.582;9.714;2022-12-07T14:04:30;8.10;;;1.83;;
56391;SDS011;42289;53.582;9.714;2022-12-07T14:06:59;7.47;;;0.95;;
56391;SDS011;42289;53.582;9.714;2022-12-07T14:09:27;6.47;;;1.40;;
56391;SDS011;42289;53.582;9.714;2022-12-07T14:11:55;7.78;;;1.00;;
56391;SDS011;42289;53.582;9.714;2022-12-07T14:14:24;5.38;;;1.20;;
56391;SDS011;42289;53.582;9.714;2022-12-07T14:16:56;4.32;;;0.88;;
56391;SDS011;42289;53.582;9.714;2022-12-07T14:19:42;4.38;;;0.95;;
56391;SDS011;42289;53.582;9.714;2022-12-07T14:22:22;5.43;;;1.00;;
56391;SDS011;42289;53.582;9.714;2022-12-07T14:24:50;5.45;;;0.90;;
56391;SDS011;42289;53.582;9.714;2022-12-07T14:27:17;6.55;;;1.10;;
56391;SDS011;42289;53.582;9.714;2022-12-07T14:29:45;3.90;;;0.75;;
56391;SDS011;42289;53.582;9.714;2022-12-07T14:32:22;8.55;;;0.98;;
56391;SDS011;42289;53.582;9.714;2022-12-07T14:34:55;4.00;;;0.85;;
56391;SDS011;42289;53.582;9.714;2022-12-07T14:37:23;9.70;;;1.20;;
56391;SDS011;42289;53.582;9.714;2022-12-07T14:39:50;3.38;;;1.00;;
56391;SDS011;42289;53.582;9.714;2022-12-07T14:42:16;6.30;;;1.75;;
56391;SDS011;42289;53.582;9.714;2022-12-07T14:44:43;8.73;;;1.45;;
56391;SDS011;42289;53.582;9.714;2022-12-07T14:47:10;3.53;;;0.90;;
56391;SDS011;42289;53.582;9.714;2022-12-07T14:49:37;5.03;;;1.27;;
56391;SDS011;42289;53.582;9.714;2022-12-07T14:52:05;5.25;;;1.23;;
56391;SDS011;42289;53.582;9.714;2022-12-07T14:57:04;5.85;;;1.10;;
56391;SDS011;42289;53.582;9.714;2022-12-07T14:59:30;9.50;;;1.42;;
56391;SDS011;42289;53.582;9.714;2022-12-07T15:01:57;8.95;;;1.13;;
56391;SDS011;42289;53.582;9.714;2022-12-07T15:04:23;6.35;;;1.40;;
56391;SDS011;42289;53.582;9.714;2022-12-07T15:06:56;7.95;;;1.02;;
56391;SDS011;42289;53.582;9.714;2022-12-07T15:11:51;4.22;;;1.10;;
56391;SDS011;42289;53.582;9.714;2022-12-07T15:14:17;4.82;;;1.10;;
56391;SDS011;42289;53.582;9.714;2022-12-07T15:16:44;7.28;;;1.23;;
56391;SDS011;42289;53.582;9.714;2022-12-07T15:19:12;11.07;;;2.08;;
56391;SDS011;42289;53.582;9.714;2022-12-07T15:21:40;9.45;;;1.85;;
56391;SDS011;42289;53.582;9.714;2022-12-07T15:24:08;8.10;;;1.65;;